Airport View

Enter AWOS ICAO identifier for current METAR.

ex. KFNL

KSVE 171150Z AUTO 29003KT 10SM CLR 00/M02 A3035 RMK AO2

17 Nov 2019 11:55

Frequency: 133.8

Phone: 530-257-0315

Other Area AWOS: KRTS - KRNO - KBLU - KAAT

TAF KRNO 170525Z 1706/1806 VRB03KT P6SM SCT250